sensor_id;sensor_type;location;lat;lon;timestamp;P1;durP1;ratioP1;P2;durP2;ratioP2
14994;SDS011;7593;49.006;8.372;2022-07-09T00:02:17;5.68;;;3.70;;
14994;SDS011;7593;49.006;8.372;2022-07-09T00:04:44;7.40;;;4.53;;
14994;SDS011;7593;49.006;8.372;2022-07-09T00:07:10;7.70;;;3.60;;
14994;SDS011;7593;49.006;8.372;2022-07-09T00:09:37;6.05;;;3.90;;
14994;SDS011;7593;49.006;8.372;2022-07-09T00:12:05;6.47;;;3.70;;
14994;SDS011;7593;49.006;8.372;2022-07-09T00:14:32;9.80;;;3.80;;
14994;SDS011;7593;49.006;8.372;2022-07-09T00:17:00;5.93;;;3.88;;
14994;SDS011;7593;49.006;8.372;2022-07-09T00:19:27;6.90;;;3.60;;
14994;SDS011;7593;49.006;8.372;2022-07-09T00:21:54;8.50;;;3.78;;
14994;SDS011;7593;49.006;8.372;2022-07-09T00:24:20;7.35;;;3.60;;
14994;SDS011;7593;49.006;8.372;2022-07-09T00:26:47;7.03;;;3.58;;
14994;SDS011;7593;49.006;8.372;2022-07-09T00:29:14;7.20;;;3.78;;
14994;SDS011;7593;49.006;8.372;2022-07-09T00:31:41;6.10;;;3.38;;
14994;SDS011;7593;49.006;8.372;2022-07-09T00:34:09;6.53;;;3.55;;
14994;SDS011;7593;49.006;8.372;2022-07-09T00:36:36;7.50;;;3.47;;
14994;SDS011;7593;49.006;8.372;2022-07-09T00:39:02;5.03;;;2.92;;
14994;SDS011;7593;49.006;8.372;2022-07-09T00:41:29;5.82;;;3.08;;
14994;SDS011;7593;49.006;8.372;2022-07-09T00:43:56;8.43;;;3.22;;
14994;SDS011;7593;49.006;8.372;2022-07-09T00:46:23;5.60;;;3.28;;
14994;SDS011;7593;49.006;8.372;2022-07-09T00:48:49;6.15;;;3.00;;
14994;SDS011;7593;49.006;8.372;2022-07-09T00:51:18;4.03;;;3.20;;
14994;SDS011;7593;49.006;8.372;2022-07-09T00:53:45;5.88;;;3.05;;
14994;SDS011;7593;49.006;8.372;2022-07-09T00:56:14;5.32;;;3.30;;
14994;SDS011;7593;49.006;8.372;2022-07-09T00:58:42;4.50;;;3.00;;
14994;SDS011;7593;49.006;8.372;2022-07-09T01:01:12;6.20;;;3.42;;
14994;SDS011;7593;49.006;8.372;2022-07-09T01:03:38;8.20;;;3.33;;
14994;SDS011;7593;49.006;8.372;2022-07-09T01:06:06;9.70;;;3.42;;
14994;SDS011;7593;49.006;8.372;2022-07-09T01:08:34;6.68;;;3.05;;
14994;SDS011;7593;49.006;8.372;2022-07-09T01:11:01;8.27;;;3.45;;
14994;SDS011;7593;49.006;8.372;2022-07-09T01:13:28;6.22;;;3.03;;
14994;SDS011;7593;49.006;8.372;2022-07-09T01:15:55;5.18;;;3.00;;
14994;SDS011;7593;49.006;8.372;2022-07-09T01:18:22;3.78;;;3.03;;
14994;SDS011;7593;49.006;8.372;2022-07-09T01:20:50;4.13;;;2.80;;
14994;SDS011;7593;49.006;8.372;2022-07-09T01:23:18;4.05;;;2.88;;
14994;SDS011;7593;49.006;8.372;2022-07-09T01:25:45;6.90;;;3.22;;
14994;SDS011;7593;49.006;8.372;2022-07-09T01:28:13;5.80;;;3.15;;
14994;SDS011;7593;49.006;8.372;2022-07-09T01:30:40;5.93;;;3.10;;
14994;SDS011;7593;49.006;8.372;2022-07-09T01:33:07;5.95;;;2.90;;
14994;SDS011;7593;49.006;8.372;2022-07-09T01:35:34;4.35;;;3.08;;
14994;SDS011;7593;49.006;8.372;2022-07-09T01:38:02;5.55;;;2.70;;
14994;SDS011;7593;49.006;8.372;2022-07-09T01:40:29;5.18;;;2.80;;
14994;SDS011;7593;49.006;8.372;2022-07-09T01:42:56;5.53;;;2.92;;
14994;SDS011;7593;49.006;8.372;2022-07-09T01:45:22;5.80;;;3.30;;
14994;SDS011;7593;49.006;8.372;2022-07-09T01:47:49;5.93;;;3.10;;
14994;SDS011;7593;49.006;8.372;2022-07-09T01:50:16;6.00;;;2.88;;
14994;SDS011;7593;49.006;8.372;2022-07-09T01:52:43;5.40;;;2.95;;
14994;SDS011;7593;49.006;8.372;2022-07-09T01:55:11;6.57;;;3.30;;
14994;SDS011;7593;49.006;8.372;2022-07-09T01:57:38;6.20;;;2.75;;
14994;SDS011;7593;49.006;8.372;2022-07-09T02:00:05;5.55;;;3.05;;
14994;SDS011;7593;49.006;8.372;2022-07-09T02:02:32;3.65;;;2.60;;
14994;SDS011;7593;49.006;8.372;2022-07-09T02:04:59;4.65;;;2.92;;
14994;SDS011;7593;49.006;8.372;2022-07-09T02:07:26;5.15;;;2.83;;
14994;SDS011;7593;49.006;8.372;2022-07-09T02:09:53;4.90;;;3.05;;
14994;SDS011;7593;49.006;8.372;2022-07-09T02:12:21;4.97;;;3.00;;
14994;SDS011;7593;49.006;8.372;2022-07-09T02:14:48;4.10;;;2.85;;
14994;SDS011;7593;49.006;8.372;2022-07-09T02:17:15;4.32;;;2.97;;
14994;SDS011;7593;49.006;8.372;2022-07-09T02:19:42;7.65;;;3.17;;
14994;SDS011;7593;49.006;8.372;2022-07-09T02:22:09;5.75;;;2.80;;
14994;SDS011;7593;49.006;8.372;2022-07-09T02:24:36;5.40;;;3.13;;
14994;SDS011;7593;49.006;8.372;2022-07-09T02:27:03;4.05;;;2.63;;
14994;SDS011;7593;49.006;8.372;2022-07-09T02:29:32;6.25;;;3.05;;
14994;SDS011;7593;49.006;8.372;2022-07-09T02:31:59;4.78;;;2.92;;
14994;SDS011;7593;49.006;8.372;2022-07-09T02:34:26;6.15;;;2.90;;
14994;SDS011;7593;49.006;8.372;2022-07-09T02:36:53;4.57;;;3.08;;
14994;SDS011;7593;49.006;8.372;2022-07-09T02:39:19;5.25;;;2.72;;
14994;SDS011;7593;49.006;8.372;2022-07-09T02:41:46;7.32;;;3.10;;
14994;SDS011;7593;49.006;8.372;2022-07-09T02:44:13;4.93;;;2.83;;
14994;SDS011;7593;49.006;8.372;2022-07-09T02:46:41;4.40;;;2.60;;
14994;SDS011;7593;49.006;8.372;2022-07-09T02:49:08;6.40;;;2.70;;
14994;SDS011;7593;49.006;8.372;2022-07-09T02:51:35;3.75;;;3.00;;
14994;SDS011;7593;49.006;8.372;2022-07-09T02:54:02;5.47;;;3.10;;
14994;SDS011;7593;49.006;8.372;2022-07-09T02:56:29;4.90;;;2.65;;
14994;SDS011;7593;49.006;8.372;2022-07-09T02:58:56;6.60;;;2.90;;
14994;SDS011;7593;49.006;8.372;2022-07-09T03:01:22;4.28;;;3.00;;
14994;SDS011;7593;49.006;8.372;2022-07-09T03:03:51;7.50;;;2.90;;
14994;SDS011;7593;49.006;8.372;2022-07-09T03:06:18;7.40;;;3.08;;
14994;SDS011;7593;49.006;8.372;2022-07-09T03:08:45;7.80;;;2.80;;
14994;SDS011;7593;49.006;8.372;2022-07-09T03:11:11;4.75;;;3.05;;
14994;SDS011;7593;49.006;8.372;2022-07-09T03:13:38;8.75;;;3.33;;
14994;SDS011;7593;49.006;8.372;2022-07-09T03:16:05;2.90;;;2.42;;
14994;SDS011;7593;49.006;8.372;2022-07-09T03:18:32;4.30;;;2.50;;
14994;SDS011;7593;49.006;8.372;2022-07-09T03:21:01;6.95;;;2.70;;
14994;SDS011;7593;49.006;8.372;2022-07-09T03:23:28;6.60;;;2.92;;
14994;SDS011;7593;49.006;8.372;2022-07-09T03:25:54;6.20;;;2.88;;
14994;SDS011;7593;49.006;8.372;2022-07-09T03:28:21;3.92;;;2.90;;
14994;SDS011;7593;49.006;8.372;2022-07-09T03:30:48;7.05;;;2.88;;
14994;SDS011;7593;49.006;8.372;2022-07-09T03:33:15;4.63;;;2.90;;
14994;SDS011;7593;49.006;8.372;2022-07-09T03:35:42;6.68;;;3.15;;
14994;SDS011;7593;49.006;8.372;2022-07-09T03:38:10;4.45;;;3.05;;
14994;SDS011;7593;49.006;8.372;2022-07-09T03:40:37;4.00;;;3.05;;
14994;SDS011;7593;49.006;8.372;2022-07-09T03:43:04;7.15;;;2.95;;
14994;SDS011;7593;49.006;8.372;2022-07-09T03:45:31;5.50;;;2.97;;
14994;SDS011;7593;49.006;8.372;2022-07-09T03:47:58;5.22;;;3.10;;
14994;SDS011;7593;49.006;8.372;2022-07-09T03:50:24;6.72;;;3.25;;
14994;SDS011;7593;49.006;8.372;2022-07-09T03:52:51;5.15;;;3.22;;
14994;SDS011;7593;49.006;8.372;2022-07-09T03:55:20;5.53;;;3.25;;
14994;SDS011;7593;49.006;8.372;2022-07-09T03:57:46;5.15;;;3.40;;
14994;SDS011;7593;49.006;8.372;2022-07-09T04:00:14;6.50;;;3.35;;
14994;SDS011;7593;49.006;8.372;2022-07-09T04:02:41;6.53;;;3.40;;
14994;SDS011;7593;49.006;8.372;2022-07-09T04:05:08;5.50;;;3.60;;
14994;SDS011;7593;49.006;8.372;2022-07-09T04:07:35;4.75;;;3.22;;
14994;SDS011;7593;49.006;8.372;2022-07-09T04:10:02;3.67;;;2.90;;
14994;SDS011;7593;49.006;8.372;2022-07-09T04:12:31;5.50;;;3.20;;
14994;SDS011;7593;49.006;8.372;2022-07-09T04:14:58;5.30;;;2.78;;
14994;SDS011;7593;49.006;8.372;2022-07-09T04:17:24;6.53;;;3.15;;
14994;SDS011;7593;49.006;8.372;2022-07-09T04:19:51;4.47;;;2.97;;
14994;SDS011;7593;49.006;8.372;2022-07-09T04:22:18;5.13;;;3.17;;
14994;SDS011;7593;49.006;8.372;2022-07-09T04:24:45;5.93;;;3.38;;
14994;SDS011;7593;49.006;8.372;2022-07-09T04:27:12;4.90;;;3.53;;
14994;SDS011;7593;49.006;8.372;2022-07-09T04:29:40;8.90;;;3.33;;
14994;SDS011;7593;49.006;8.372;2022-07-09T04:32:07;7.82;;;3.55;;
14994;SDS011;7593;49.006;8.372;2022-07-09T04:34:34;5.72;;;3.17;;
14994;SDS011;7593;49.006;8.372;2022-07-09T04:37:01;3.72;;;2.85;;
14994;SDS011;7593;49.006;8.372;2022-07-09T04:39:27;7.80;;;3.58;;
14994;SDS011;7593;49.006;8.372;2022-07-09T04:41:54;3.85;;;3.45;;
14994;SDS011;7593;49.006;8.372;2022-07-09T04:44:21;5.82;;;3.58;;
14994;SDS011;7593;49.006;8.372;2022-07-09T04:46:49;3.58;;;3.20;;
14994;SDS011;7593;49.006;8.372;2022-07-09T04:49:16;5.03;;;3.22;;
14994;SDS011;7593;49.006;8.372;2022-07-09T04:51:43;4.35;;;3.20;;
14994;SDS011;7593;49.006;8.372;2022-07-09T04:54:10;4.97;;;3.00;;
14994;SDS011;7593;49.006;8.372;2022-07-09T04:56:36;10.30;;;3.10;;
14994;SDS011;7593;49.006;8.372;2022-07-09T04:59:03;7.70;;;3.58;;
14994;SDS011;7593;49.006;8.372;2022-07-09T05:01:30;8.82;;;3.30;;
14994;SDS011;7593;49.006;8.372;2022-07-09T05:03:58;7.63;;;3.20;;
14994;SDS011;7593;49.006;8.372;2022-07-09T05:06:25;5.35;;;3.53;;
14994;SDS011;7593;49.006;8.372;2022-07-09T05:08:52;6.80;;;3.70;;
14994;SDS011;7593;49.006;8.372;2022-07-09T05:11:19;6.35;;;3.45;;
14994;SDS011;7593;49.006;8.372;2022-07-09T05:13:46;6.22;;;3.22;;
14994;SDS011;7593;49.006;8.372;2022-07-09T05:16:13;5.22;;;3.65;;
14994;SDS011;7593;49.006;8.372;2022-07-09T05:18:40;4.90;;;2.90;;
14994;SDS011;7593;49.006;8.372;2022-07-09T05:21:08;3.40;;;2.80;;
14994;SDS011;7593;49.006;8.372;2022-07-09T05:23:35;5.82;;;3.00;;
14994;SDS011;7593;49.006;8.372;2022-07-09T05:26:02;4.10;;;3.03;;
14994;SDS011;7593;49.006;8.372;2022-07-09T05:28:29;4.38;;;3.30;;
14994;SDS011;7593;49.006;8.372;2022-07-09T05:30:56;6.57;;;3.25;;
14994;SDS011;7593;49.006;8.372;2022-07-09T05:33:23;5.72;;;3.10;;
14994;SDS011;7593;49.006;8.372;2022-07-09T05:35:50;4.90;;;2.78;;
14994;SDS011;7593;49.006;8.372;2022-07-09T05:38:18;6.28;;;2.90;;
14994;SDS011;7593;49.006;8.372;2022-07-09T05:40:46;6.20;;;3.00;;
14994;SDS011;7593;49.006;8.372;2022-07-09T05:43:13;5.30;;;2.80;;
14994;SDS011;7593;49.006;8.372;2022-07-09T05:45:39;5.07;;;2.60;;
14994;SDS011;7593;49.006;8.372;2022-07-09T05:48:07;4.25;;;2.70;;
14994;SDS011;7593;49.006;8.372;2022-07-09T05:50:33;5.22;;;2.90;;
14994;SDS011;7593;49.006;8.372;2022-07-09T05:53:00;5.57;;;2.95;;
14994;SDS011;7593;49.006;8.372;2022-07-09T05:55:28;4.53;;;2.88;;
14994;SDS011;7593;49.006;8.372;2022-07-09T05:57:55;6.40;;;2.90;;
14994;SDS011;7593;49.006;8.372;2022-07-09T06:00:22;4.15;;;2.85;;
14994;SDS011;7593;49.006;8.372;2022-07-09T06:02:49;4.18;;;3.13;;
14994;SDS011;7593;49.006;8.372;2022-07-09T06:05:16;4.53;;;2.83;;
14994;SDS011;7593;49.006;8.372;2022-07-09T06:07:44;5.93;;;3.28;;
14994;SDS011;7593;49.006;8.372;2022-07-09T06:10:11;6.55;;;2.90;;
14994;SDS011;7593;49.006;8.372;2022-07-09T06:12:40;4.30;;;2.70;;
14994;SDS011;7593;49.006;8.372;2022-07-09T06:15:08;5.80;;;3.08;;
14994;SDS011;7593;49.006;8.372;2022-07-09T06:17:36;6.28;;;2.90;;
14994;SDS011;7593;49.006;8.372;2022-07-09T06:20:03;3.83;;;2.85;;
14994;SDS011;7593;49.006;8.372;2022-07-09T06:22:30;7.30;;;2.95;;
14994;SDS011;7593;49.006;8.372;2022-07-09T06:24:57;7.00;;;3.40;;
14994;SDS011;7593;49.006;8.372;2022-07-09T06:27:24;6.22;;;3.00;;
14994;SDS011;7593;49.006;8.372;2022-07-09T06:29:52;6.93;;;3.58;;
14994;SDS011;7593;49.006;8.372;2022-07-09T06:32:19;5.70;;;2.90;;
14994;SDS011;7593;49.006;8.372;2022-07-09T06:34:46;7.40;;;2.72;;
14994;SDS011;7593;49.006;8.372;2022-07-09T06:37:13;5.35;;;2.90;;
14994;SDS011;7593;49.006;8.372;2022-07-09T06:39:41;8.52;;;3.05;;
14994;SDS011;7593;49.006;8.372;2022-07-09T06:42:11;8.98;;;2.92;;
14994;SDS011;7593;49.006;8.372;2022-07-09T06:44:39;5.25;;;2.95;;
14994;SDS011;7593;49.006;8.372;2022-07-09T06:47:07;5.00;;;2.70;;
14994;SDS011;7593;49.006;8.372;2022-07-09T06:49:34;5.57;;;2.50;;
14994;SDS011;7593;49.006;8.372;2022-07-09T06:52:01;5.32;;;2.75;;
14994;SDS011;7593;49.006;8.372;2022-07-09T06:54:29;6.57;;;2.80;;
14994;SDS011;7593;49.006;8.372;2022-07-09T06:56:56;6.93;;;2.85;;
14994;SDS011;7593;49.006;8.372;2022-07-09T06:59:23;4.78;;;2.30;;
14994;SDS011;7593;49.006;8.372;2022-07-09T07:01:50;5.75;;;2.75;;
14994;SDS011;7593;49.006;8.372;2022-07-09T07:04:18;5.38;;;2.72;;
14994;SDS011;7593;49.006;8.372;2022-07-09T07:06:45;8.15;;;2.78;;
14994;SDS011;7593;49.006;8.372;2022-07-09T07:09:13;3.92;;;2.38;;
14994;SDS011;7593;49.006;8.372;2022-07-09T07:11:41;5.20;;;2.60;;
14994;SDS011;7593;49.006;8.372;2022-07-09T07:14:07;8.30;;;2.85;;
14994;SDS011;7593;49.006;8.372;2022-07-09T07:16:34;5.88;;;2.25;;
14994;SDS011;7593;49.006;8.372;2022-07-09T07:19:01;4.80;;;2.30;;
14994;SDS011;7593;49.006;8.372;2022-07-09T07:21:29;3.58;;;2.20;;
14994;SDS011;7593;49.006;8.372;2022-07-09T07:23:56;5.28;;;2.22;;
14994;SDS011;7593;49.006;8.372;2022-07-09T07:26:23;4.22;;;2.13;;
14994;SDS011;7593;49.006;8.372;2022-07-09T07:28:49;5.32;;;1.83;;
14994;SDS011;7593;49.006;8.372;2022-07-09T07:31:17;5.28;;;2.42;;
14994;SDS011;7593;49.006;8.372;2022-07-09T07:33:44;3.13;;;1.90;;
14994;SDS011;7593;49.006;8.372;2022-07-09T07:36:11;3.22;;;1.77;;
14994;SDS011;7593;49.006;8.372;2022-07-09T07:38:39;4.93;;;2.20;;
14994;SDS011;7593;49.006;8.372;2022-07-09T07:41:06;3.38;;;1.90;;
14994;SDS011;7593;49.006;8.372;2022-07-09T07:43:33;4.47;;;2.30;;
14994;SDS011;7593;49.006;8.372;2022-07-09T07:45:59;5.68;;;2.75;;
14994;SDS011;7593;49.006;8.372;2022-07-09T07:48:26;4.40;;;2.15;;
14994;SDS011;7593;49.006;8.372;2022-07-09T07:51:01;6.38;;;2.22;;
14994;SDS011;7593;49.006;8.372;2022-07-09T07:53:29;4.75;;;2.10;;
14994;SDS011;7593;49.006;8.372;2022-07-09T07:56:00;5.45;;;2.17;;
14994;SDS011;7593;49.006;8.372;2022-07-09T07:58:27;5.10;;;1.83;;
14994;SDS011;7593;49.006;8.372;2022-07-09T08:00:54;5.95;;;2.15;;
14994;SDS011;7593;49.006;8.372;2022-07-09T08:03:21;3.60;;;2.05;;
14994;SDS011;7593;49.006;8.372;2022-07-09T08:05:48;3.80;;;1.95;;
14994;SDS011;7593;49.006;8.372;2022-07-09T08:08:15;3.53;;;1.85;;
14994;SDS011;7593;49.006;8.372;2022-07-09T08:10:46;8.10;;;1.85;;
14994;SDS011;7593;49.006;8.372;2022-07-09T08:13:15;2.90;;;1.70;;
14994;SDS011;7593;49.006;8.372;2022-07-09T08:15:42;2.92;;;1.60;;
14994;SDS011;7593;49.006;8.372;2022-07-09T08:18:09;5.72;;;1.80;;
14994;SDS011;7593;49.006;8.372;2022-07-09T08:20:38;3.65;;;1.67;;
14994;SDS011;7593;49.006;8.372;2022-07-09T08:23:05;3.00;;;1.42;;
14994;SDS011;7593;49.006;8.372;2022-07-09T08:25:32;4.30;;;1.70;;
14994;SDS011;7593;49.006;8.372;2022-07-09T08:27:59;4.13;;;1.70;;
14994;SDS011;7593;49.006;8.372;2022-07-09T08:30:27;8.48;;;1.60;;
14994;SDS011;7593;49.006;8.372;2022-07-09T08:32:55;4.97;;;1.75;;
14994;SDS011;7593;49.006;8.372;2022-07-09T08:35:21;3.03;;;1.73;;
14994;SDS011;7593;49.006;8.372;2022-07-09T08:37:50;2.63;;;1.50;;
14994;SDS011;7593;49.006;8.372;2022-07-09T08:40:17;2.90;;;1.40;;
14994;SDS011;7593;49.006;8.372;2022-07-09T08:42:44;4.57;;;1.50;;
14994;SDS011;7593;49.006;8.372;2022-07-09T08:45:11;3.70;;;1.80;;
14994;SDS011;7593;49.006;8.372;2022-07-09T08:47:41;5.25;;;1.40;;
14994;SDS011;7593;49.006;8.372;2022-07-09T08:50:08;3.90;;;1.42;;
14994;SDS011;7593;49.006;8.372;2022-07-09T08:52:36;3.08;;;1.60;;
14994;SDS011;7593;49.006;8.372;2022-07-09T08:55:06;3.67;;;1.55;;
14994;SDS011;7593;49.006;8.372;2022-07-09T08:57:34;3.67;;;1.75;;
14994;SDS011;7593;49.006;8.372;2022-07-09T09:00:01;5.60;;;1.52;;
14994;SDS011;7593;49.006;8.372;2022-07-09T09:02:33;4.10;;;1.70;;
14994;SDS011;7593;49.006;8.372;2022-07-09T09:05:06;3.40;;;1.60;;
14994;SDS011;7593;49.006;8.372;2022-07-09T09:07:34;3.55;;;1.63;;
14994;SDS011;7593;49.006;8.372;2022-07-09T09:10:02;4.68;;;1.70;;
14994;SDS011;7593;49.006;8.372;2022-07-09T09:12:29;5.10;;;1.58;;
14994;SDS011;7593;49.006;8.372;2022-07-09T09:14:55;3.80;;;1.33;;
14994;SDS011;7593;49.006;8.372;2022-07-09T09:17:22;4.07;;;1.50;;
14994;SDS011;7593;49.006;8.372;2022-07-09T09:19:49;4.07;;;1.40;;
14994;SDS011;7593;49.006;8.372;2022-07-09T09:22:18;4.22;;;1.50;;
14994;SDS011;7593;49.006;8.372;2022-07-09T09:24:48;3.20;;;1.38;;
14994;SDS011;7593;49.006;8.372;2022-07-09T09:27:16;3.72;;;1.40;;
14994;SDS011;7593;49.006;8.372;2022-07-09T09:29:53;2.40;;;1.25;;
14994;SDS011;7593;49.006;8.372;2022-07-09T09:32:25;4.38;;;1.40;;
14994;SDS011;7593;49.006;8.372;2022-07-09T09:34:52;3.13;;;1.50;;
14994;SDS011;7593;49.006;8.372;2022-07-09T09:37:27;3.00;;;1.40;;
14994;SDS011;7593;49.006;8.372;2022-07-09T09:39:54;2.80;;;1.50;;
14994;SDS011;7593;49.006;8.372;2022-07-09T09:42:24;2.75;;;1.63;;
14994;SDS011;7593;49.006;8.372;2022-07-09T09:44:51;2.63;;;1.63;;
14994;SDS011;7593;49.006;8.372;2022-07-09T09:47:22;4.32;;;1.60;;
14994;SDS011;7593;49.006;8.372;2022-07-09T09:49:50;3.28;;;1.63;;
14994;SDS011;7593;49.006;8.372;2022-07-09T09:52:16;2.92;;;1.70;;
14994;SDS011;7593;49.006;8.372;2022-07-09T09:54:47;3.10;;;1.70;;
14994;SDS011;7593;49.006;8.372;2022-07-09T09:57:14;2.88;;;1.77;;
14994;SDS011;7593;49.006;8.372;2022-07-09T09:59:43;5.00;;;1.83;;
14994;SDS011;7593;49.006;8.372;2022-07-09T10:02:11;2.45;;;1.17;;
14994;SDS011;7593;49.006;8.372;2022-07-09T10:04:39;4.78;;;1.55;;
14994;SDS011;7593;49.006;8.372;2022-07-09T10:07:11;1.88;;;1.20;;
14994;SDS011;7593;49.006;8.372;2022-07-09T10:09:39;2.13;;;1.33;;
14994;SDS011;7593;49.006;8.372;2022-07-09T10:12:08;2.72;;;1.70;;
14994;SDS011;7593;49.006;8.372;2022-07-09T10:14:38;1.35;;;0.90;;
14994;SDS011;7593;49.006;8.372;2022-07-09T10:17:11;2.15;;;0.93;;
14994;SDS011;7593;49.006;8.372;2022-07-09T10:19:50;1.70;;;1.17;;
14994;SDS011;7593;49.006;8.372;2022-07-09T10:22:19;2.22;;;1.05;;
14994;SDS011;7593;49.006;8.372;2022-07-09T10:24:46;2.33;;;1.30;;
14994;SDS011;7593;49.006;8.372;2022-07-09T10:27:17;2.28;;;0.95;;
14994;SDS011;7593;49.006;8.372;2022-07-09T10:29:52;2.85;;;0.95;;
14994;SDS011;7593;49.006;8.372;2022-07-09T10:32:24;3.47;;;1.00;;
14994;SDS011;7593;49.006;8.372;2022-07-09T10:34:56;2.20;;;1.10;;
14994;SDS011;7593;49.006;8.372;2022-07-09T10:37:34;3.25;;;1.10;;
14994;SDS011;7593;49.006;8.372;2022-07-09T10:40:07;1.30;;;0.95;;
14994;SDS011;7593;49.006;8.372;2022-07-09T10:42:37;2.10;;;1.10;;
14994;SDS011;7593;49.006;8.372;2022-07-09T10:45:22;1.50;;;0.90;;
14994;SDS011;7593;49.006;8.372;2022-07-09T10:47:53;1.83;;;0.90;;
14994;SDS011;7593;49.006;8.372;2022-07-09T10:50:21;2.35;;;0.90;;
14994;SDS011;7593;49.006;8.372;2022-07-09T10:52:48;2.20;;;1.20;;
14994;SDS011;7593;49.006;8.372;2022-07-09T10:55:16;1.80;;;1.00;;
14994;SDS011;7593;49.006;8.372;2022-07-09T10:57:45;3.03;;;1.20;;
14994;SDS011;7593;49.006;8.372;2022-07-09T11:00:15;1.65;;;1.00;;
14994;SDS011;7593;49.006;8.372;2022-07-09T11:02:53;1.52;;;1.00;;
14994;SDS011;7593;49.006;8.372;2022-07-09T11:05:21;1.60;;;1.10;;
14994;SDS011;7593;49.006;8.372;2022-07-09T11:07:58;3.40;;;1.27;;
14994;SDS011;7593;49.006;8.372;2022-07-09T11:10:28;3.63;;;1.30;;
14994;SDS011;7593;49.006;8.372;2022-07-09T11:12:58;3.47;;;1.20;;
14994;SDS011;7593;49.006;8.372;2022-07-09T11:15:27;2.70;;;1.13;;
14994;SDS011;7593;49.006;8.372;2022-07-09T11:18:02;2.83;;;1.30;;
14994;SDS011;7593;49.006;8.372;2022-07-09T11:20:31;4.68;;;1.40;;
14994;SDS011;7593;49.006;8.372;2022-07-09T11:23:02;4.22;;;1.60;;
14994;SDS011;7593;49.006;8.372;2022-07-09T11:25:29;3.65;;;1.38;;
14994;SDS011;7593;49.006;8.372;2022-07-09T11:27:59;2.58;;;1.52;;
14994;SDS011;7593;49.006;8.372;2022-07-09T11:30:27;3.55;;;1.48;;
14994;SDS011;7593;49.006;8.372;2022-07-09T11:32:54;3.10;;;1.90;;
14994;SDS011;7593;49.006;8.372;2022-07-09T11:35:26;2.03;;;1.50;;
14994;SDS011;7593;49.006;8.372;2022-07-09T11:37:53;4.28;;;1.70;;
14994;SDS011;7593;49.006;8.372;2022-07-09T11:40:21;3.75;;;1.50;;
14994;SDS011;7593;49.006;8.372;2022-07-09T11:42:47;3.10;;;1.55;;
14994;SDS011;7593;49.006;8.372;2022-07-09T11:45:21;1.75;;;1.30;;
14994;SDS011;7593;49.006;8.372;2022-07-09T11:47:49;1.90;;;1.20;;
14994;SDS011;7593;49.006;8.372;2022-07-09T11:50:17;2.05;;;1.38;;
14994;SDS011;7593;49.006;8.372;2022-07-09T11:52:47;1.80;;;1.17;;
14994;SDS011;7593;49.006;8.372;2022-07-09T11:55:16;3.90;;;1.30;;
14994;SDS011;7593;49.006;8.372;2022-07-09T11:57:51;1.90;;;1.10;;
14994;SDS011;7593;49.006;8.372;2022-07-09T12:00:24;2.58;;;1.20;;
14994;SDS011;7593;49.006;8.372;2022-07-09T12:02:52;2.80;;;1.20;;
14994;SDS011;7593;49.006;8.372;2022-07-09T12:05:26;2.67;;;1.42;;
14994;SDS011;7593;49.006;8.372;2022-07-09T12:07:55;2.10;;;1.10;;
14994;SDS011;7593;49.006;8.372;2022-07-09T12:10:26;1.95;;;1.33;;
14994;SDS011;7593;49.006;8.372;2022-07-09T12:12:54;1.80;;;1.25;;
14994;SDS011;7593;49.006;8.372;2022-07-09T12:15:22;1.92;;;1.10;;
14994;SDS011;7593;49.006;8.372;2022-07-09T12:17:50;1.85;;;1.00;;
14994;SDS011;7593;49.006;8.372;2022-07-09T12:20:19;3.05;;;1.20;;
14994;SDS011;7593;49.006;8.372;2022-07-09T12:22:46;3.00;;;1.27;;
14994;SDS011;7593;49.006;8.372;2022-07-09T12:25:13;2.38;;;1.10;;
14994;SDS011;7593;49.006;8.372;2022-07-09T12:27:40;3.30;;;1.30;;
14994;SDS011;7593;49.006;8.372;2022-07-09T12:30:07;3.30;;;1.20;;
14994;SDS011;7593;49.006;8.372;2022-07-09T12:32:36;2.17;;;1.10;;
14994;SDS011;7593;49.006;8.372;2022-07-09T12:35:03;1.73;;;1.00;;
14994;SDS011;7593;49.006;8.372;2022-07-09T12:37:31;4.07;;;1.05;;
14994;SDS011;7593;49.006;8.372;2022-07-09T12:39:59;1.50;;;1.00;;
14994;SDS011;7593;49.006;8.372;2022-07-09T12:42:26;2.60;;;0.93;;
14994;SDS011;7593;49.006;8.372;2022-07-09T12:44:52;1.48;;;0.98;;
14994;SDS011;7593;49.006;8.372;2022-07-09T12:47:19;2.50;;;1.25;;
14994;SDS011;7593;49.006;8.372;2022-07-09T12:49:47;3.25;;;1.25;;
14994;SDS011;7593;49.006;8.372;2022-07-09T12:52:14;1.90;;;1.00;;
14994;SDS011;7593;49.006;8.372;2022-07-09T12:54:41;2.10;;;1.23;;
14994;SDS011;7593;49.006;8.372;2022-07-09T12:57:08;2.40;;;1.20;;
14994;SDS011;7593;49.006;8.372;2022-07-09T12:59:36;1.63;;;1.30;;
14994;SDS011;7593;49.006;8.372;2022-07-09T13:02:03;2.33;;;1.30;;
14994;SDS011;7593;49.006;8.372;2022-07-09T13:04:31;1.77;;;1.30;;
14994;SDS011;7593;49.006;8.372;2022-07-09T13:06:59;3.53;;;1.42;;
14994;SDS011;7593;49.006;8.372;2022-07-09T13:09:27;2.45;;;1.30;;
14994;SDS011;7593;49.006;8.372;2022-07-09T13:11:54;3.85;;;3.33;;
14994;SDS011;7593;49.006;8.372;2022-07-09T13:14:20;2.65;;;1.63;;
14994;SDS011;7593;49.006;8.372;2022-07-09T13:16:47;2.00;;;1.50;;
14994;SDS011;7593;49.006;8.372;2022-07-09T13:19:14;3.47;;;1.20;;
14994;SDS011;7593;49.006;8.372;2022-07-09T13:21:41;1.38;;;1.23;;
14994;SDS011;7593;49.006;8.372;2022-07-09T13:24:09;1.83;;;1.30;;
14994;SDS011;7593;49.006;8.372;2022-07-09T13:26:36;6.13;;;1.70;;
14994;SDS011;7593;49.006;8.372;2022-07-09T13:29:02;2.72;;;1.50;;
14994;SDS011;7593;49.006;8.372;2022-07-09T13:31:29;2.00;;;1.30;;
14994;SDS011;7593;49.006;8.372;2022-07-09T13:33:56;3.58;;;1.27;;
14994;SDS011;7593;49.006;8.372;2022-07-09T13:36:23;3.97;;;1.40;;
14994;SDS011;7593;49.006;8.372;2022-07-09T13:38:50;2.63;;;1.30;;
14994;SDS011;7593;49.006;8.372;2022-07-09T13:41:18;1.80;;;1.33;;
14994;SDS011;7593;49.006;8.372;2022-07-09T13:43:45;1.55;;;1.25;;
14994;SDS011;7593;49.006;8.372;2022-07-09T13:46:12;3.30;;;1.23;;
14994;SDS011;7593;49.006;8.372;2022-07-09T13:48:39;2.17;;;1.38;;
14994;SDS011;7593;49.006;8.372;2022-07-09T13:51:06;2.28;;;1.30;;
14994;SDS011;7593;49.006;8.372;2022-07-09T13:53:33;3.75;;;1.35;;
14994;SDS011;7593;49.006;8.372;2022-07-09T13:56:00;2.50;;;1.40;;
14994;SDS011;7593;49.006;8.372;2022-07-09T13:58:28;2.58;;;1.23;;
14994;SDS011;7593;49.006;8.372;2022-07-09T14:00:55;2.22;;;1.35;;
14994;SDS011;7593;49.006;8.372;2022-07-09T14:03:22;5.95;;;1.30;;
14994;SDS011;7593;49.006;8.372;2022-07-09T14:05:49;2.35;;;1.45;;
14994;SDS011;7593;49.006;8.372;2022-07-09T14:08:16;3.63;;;1.60;;
14994;SDS011;7593;49.006;8.372;2022-07-09T14:10:42;2.28;;;1.50;;
14994;SDS011;7593;49.006;8.372;2022-07-09T14:13:09;1.90;;;1.35;;
14994;SDS011;7593;49.006;8.372;2022-07-09T14:15:38;1.95;;;1.25;;
14994;SDS011;7593;49.006;8.372;2022-07-09T14:18:04;2.00;;;1.40;;
14994;SDS011;7593;49.006;8.372;2022-07-09T14:20:31;2.75;;;1.60;;
14994;SDS011;7593;49.006;8.372;2022-07-09T14:22:58;2.72;;;1.20;;
14994;SDS011;7593;49.006;8.372;2022-07-09T14:25:25;5.10;;;1.55;;
14994;SDS011;7593;49.006;8.372;2022-07-09T14:27:52;3.58;;;1.58;;
14994;SDS011;7593;49.006;8.372;2022-07-09T14:30:19;2.60;;;1.60;;
14994;SDS011;7593;49.006;8.372;2022-07-09T14:32:47;3.60;;;1.40;;
14994;SDS011;7593;49.006;8.372;2022-07-09T14:35:14;2.05;;;1.30;;
14994;SDS011;7593;49.006;8.372;2022-07-09T14:37:41;2.60;;;1.75;;
14994;SDS011;7593;49.006;8.372;2022-07-09T14:40:08;3.38;;;1.55;;
14994;SDS011;7593;49.006;8.372;2022-07-09T14:42:36;2.65;;;1.63;;
14994;SDS011;7593;49.006;8.372;2022-07-09T14:45:04;2.72;;;1.50;;
14994;SDS011;7593;49.006;8.372;2022-07-09T14:47:31;3.25;;;1.40;;
14994;SDS011;7593;49.006;8.372;2022-07-09T14:49:59;1.98;;;1.40;;
14994;SDS011;7593;49.006;8.372;2022-07-09T14:52:26;1.75;;;1.38;;
14994;SDS011;7593;49.006;8.372;2022-07-09T14:54:53;2.20;;;1.40;;
14994;SDS011;7593;49.006;8.372;2022-07-09T14:57:20;2.60;;;1.35;;
14994;SDS011;7593;49.006;8.372;2022-07-09T14:59:48;3.70;;;1.33;;
14994;SDS011;7593;49.006;8.372;2022-07-09T15:02:15;2.42;;;1.35;;
14994;SDS011;7593;49.006;8.372;2022-07-09T15:04:42;2.85;;;1.70;;